sensor_id;sensor_type;location;lat;lon;timestamp;temperature;humidity
61392;DHT22;47261;52.892;5.738;2023-02-18T00:01:57;8.70;99.90
61392;DHT22;47261;52.892;5.738;2023-02-18T00:04:23;8.70;99.90
61392;DHT22;47261;52.892;5.738;2023-02-18T00:06:49;8.70;99.90
61392;DHT22;47261;52.892;5.738;2023-02-18T00:09:14;8.70;99.90
61392;DHT22;47261;52.892;5.738;2023-02-18T00:11:40;8.70;99.90
61392;DHT22;47261;52.892;5.738;2023-02-18T00:14:10;8.70;99.90
61392;DHT22;47261;52.892;5.738;2023-02-18T00:16:36;8.70;99.90
61392;DHT22;47261;52.892;5.738;2023-02-18T00:19:04;8.80;99.90
61392;DHT22;47261;52.892;5.738;2023-02-18T00:21:33;8.80;99.90
61392;DHT22;47261;52.892;5.738;2023-02-18T00:23:59;8.80;99.90
61392;DHT22;47261;52.892;5.738;2023-02-18T00:26:25;8.80;99.90
61392;DHT22;47261;52.892;5.738;2023-02-18T00:28:51;8.80;99.90
61392;DHT22;47261;52.892;5.738;2023-02-18T00:31:29;8.80;99.90
61392;DHT22;47261;52.892;5.738;2023-02-18T00:33:56;8.80;99.90
61392;DHT22;47261;52.892;5.738;2023-02-18T00:36:23;8.80;99.90
61392;DHT22;47261;52.892;5.738;2023-02-18T00:38:51;8.80;99.90
61392;DHT22;47261;52.892;5.738;2023-02-18T00:41:17;8.80;99.90
61392;DHT22;47261;52.892;5.738;2023-02-18T00:43:43;8.80;99.90
61392;DHT22;47261;52.892;5.738;2023-02-18T00:46:09;8.80;99.90
61392;DHT22;47261;52.892;5.738;2023-02-18T00:48:35;8.80;99.90
61392;DHT22;47261;52.892;5.738;2023-02-18T00:51:02;8.80;99.90
61392;DHT22;47261;52.892;5.738;2023-02-18T00:53:29;8.80;99.90
61392;DHT22;47261;52.892;5.738;2023-02-18T00:55:55;8.80;99.90
61392;DHT22;47261;52.892;5.738;2023-02-18T00:58:20;8.70;99.90
61392;DHT22;47261;52.892;5.738;2023-02-18T01:00:46;8.70;99.90
61392;DHT22;47261;52.892;5.738;2023-02-18T01:03:12;8.70;99.90
61392;DHT22;47261;52.892;5.738;2023-02-18T01:05:38;8.70;99.90
61392;DHT22;47261;52.892;5.738;2023-02-18T01:08:05;8.70;99.90
61392;DHT22;47261;52.892;5.738;2023-02-18T01:10:31;8.60;99.90
61392;DHT22;47261;52.892;5.738;2023-02-18T01:12:56;8.60;99.90
61392;DHT22;47261;52.892;5.738;2023-02-18T01:15:22;8.60;99.90
61392;DHT22;47261;52.892;5.738;2023-02-18T01:17:48;8.60;99.90
61392;DHT22;47261;52.892;5.738;2023-02-18T01:20:17;8.60;99.90
61392;DHT22;47261;52.892;5.738;2023-02-18T01:22:43;8.60;99.90
61392;DHT22;47261;52.892;5.738;2023-02-18T01:25:10;8.60;99.90
61392;DHT22;47261;52.892;5.738;2023-02-18T01:27:36;8.60;99.90
61392;DHT22;47261;52.892;5.738;2023-02-18T01:30:07;8.60;99.90
61392;DHT22;47261;52.892;5.738;2023-02-18T01:32:36;8.70;99.90
61392;DHT22;47261;52.892;5.738;2023-02-18T01:35:04;8.60;99.90
61392;DHT22;47261;52.892;5.738;2023-02-18T01:37:30;8.60;99.90
61392;DHT22;47261;52.892;5.738;2023-02-18T01:39:55;8.60;99.90
61392;DHT22;47261;52.892;5.738;2023-02-18T01:42:25;8.60;99.90
61392;DHT22;47261;52.892;5.738;2023-02-18T01:44:51;8.60;99.90
61392;DHT22;47261;52.892;5.738;2023-02-18T01:47:17;8.60;99.90
61392;DHT22;47261;52.892;5.738;2023-02-18T01:49:45;8.60;99.90
61392;DHT22;47261;52.892;5.738;2023-02-18T01:52:22;8.60;99.90
61392;DHT22;47261;52.892;5.738;2023-02-18T01:54:54;8.60;99.90
61392;DHT22;47261;52.892;5.738;2023-02-18T01:57:24;8.60;99.90
61392;DHT22;47261;52.892;5.738;2023-02-18T02:00:07;8.60;99.90
61392;DHT22;47261;52.892;5.738;2023-02-18T02:02:37;8.70;99.90
61392;DHT22;47261;52.892;5.738;2023-02-18T02:05:04;8.70;99.90
61392;DHT22;47261;52.892;5.738;2023-02-18T02:07:29;8.70;99.90
61392;DHT22;47261;52.892;5.738;2023-02-18T02:09:57;8.70;99.90
61392;DHT22;47261;52.892;5.738;2023-02-18T02:21:02;8.90;99.90
61392;DHT22;47261;52.892;5.738;2023-02-18T02:43:01;9.20;99.90
61392;DHT22;47261;52.892;5.738;2023-02-18T02:48:21;9.30;99.90
61392;DHT22;47261;52.892;5.738;2023-02-18T02:51:05;9.30;99.90
61392;DHT22;47261;52.892;5.738;2023-02-18T02:53:35;9.30;99.90
61392;DHT22;47261;52.892;5.738;2023-02-18T02:56:01;9.30;99.90
61392;DHT22;47261;52.892;5.738;2023-02-18T02:58:27;9.30;99.90
61392;DHT22;47261;52.892;5.738;2023-02-18T03:04:18;9.30;99.90
61392;DHT22;47261;52.892;5.738;2023-02-18T03:07:28;9.30;99.90
61392;DHT22;47261;52.892;5.738;2023-02-18T03:10:16;9.30;99.90
61392;DHT22;47261;52.892;5.738;2023-02-18T03:13:15;9.30;99.90
61392;DHT22;47261;52.892;5.738;2023-02-18T03:18:47;9.20;99.90
61392;DHT22;47261;52.892;5.738;2023-02-18T03:21:21;9.20;99.90
61392;DHT22;47261;52.892;5.738;2023-02-18T03:23:55;9.20;99.90
61392;DHT22;47261;52.892;5.738;2023-02-18T03:26:22;9.20;99.90
61392;DHT22;47261;52.892;5.738;2023-02-18T03:28:50;9.20;99.90
61392;DHT22;47261;52.892;5.738;2023-02-18T03:31:19;9.20;99.90
61392;DHT22;47261;52.892;5.738;2023-02-18T03:33:51;9.30;99.90
61392;DHT22;47261;52.892;5.738;2023-02-18T03:36:19;9.30;99.90
61392;DHT22;47261;52.892;5.738;2023-02-18T03:39:19;9.30;99.90
61392;DHT22;47261;52.892;5.738;2023-02-18T03:41:46;9.30;99.90
61392;DHT22;47261;52.892;5.738;2023-02-18T03:44:12;9.30;99.90
61392;DHT22;47261;52.892;5.738;2023-02-18T03:46:40;9.30;99.90
61392;DHT22;47261;52.892;5.738;2023-02-18T03:49:08;9.40;99.90
61392;DHT22;47261;52.892;5.738;2023-02-18T03:51:34;9.40;99.90
61392;DHT22;47261;52.892;5.738;2023-02-18T03:53:59;9.40;99.90
61392;DHT22;47261;52.892;5.738;2023-02-18T03:56:25;9.40;99.90
61392;DHT22;47261;52.892;5.738;2023-02-18T03:58:51;9.30;99.90
61392;DHT22;47261;52.892;5.738;2023-02-18T04:01:17;9.30;99.90
61392;DHT22;47261;52.892;5.738;2023-02-18T04:03:42;9.30;99.90
61392;DHT22;47261;52.892;5.738;2023-02-18T04:06:08;9.30;99.90
61392;DHT22;47261;52.892;5.738;2023-02-18T04:08:34;9.30;99.90
61392;DHT22;47261;52.892;5.738;2023-02-18T04:11:00;9.20;99.90
61392;DHT22;47261;52.892;5.738;2023-02-18T04:13:26;9.20;99.90
61392;DHT22;47261;52.892;5.738;2023-02-18T04:15:52;9.20;99.90
61392;DHT22;47261;52.892;5.738;2023-02-18T04:18:18;9.20;99.90
61392;DHT22;47261;52.892;5.738;2023-02-18T04:20:44;9.20;99.90
61392;DHT22;47261;52.892;5.738;2023-02-18T04:23:11;9.20;99.90
61392;DHT22;47261;52.892;5.738;2023-02-18T04:25:37;9.20;99.90
61392;DHT22;47261;52.892;5.738;2023-02-18T04:28:03;9.30;99.90
61392;DHT22;47261;52.892;5.738;2023-02-18T04:30:28;9.30;99.90
61392;DHT22;47261;52.892;5.738;2023-02-18T04:32:54;9.30;99.90
61392;DHT22;47261;52.892;5.738;2023-02-18T04:35:20;9.30;99.90
61392;DHT22;47261;52.892;5.738;2023-02-18T04:37:45;9.40;99.90
61392;DHT22;47261;52.892;5.738;2023-02-18T04:40:11;9.40;99.90
61392;DHT22;47261;52.892;5.738;2023-02-18T04:42:37;9.40;99.90
61392;DHT22;47261;52.892;5.738;2023-02-18T04:45:03;9.40;99.90
61392;DHT22;47261;52.892;5.738;2023-02-18T04:47:29;9.40;99.90
61392;DHT22;47261;52.892;5.738;2023-02-18T04:49:54;9.40;99.90
61392;DHT22;47261;52.892;5.738;2023-02-18T04:52:20;9.40;99.90
61392;DHT22;47261;52.892;5.738;2023-02-18T04:54:46;9.40;99.90
61392;DHT22;47261;52.892;5.738;2023-02-18T04:57:11;9.40;99.90
61392;DHT22;47261;52.892;5.738;2023-02-18T04:59:37;9.40;99.90
61392;DHT22;47261;52.892;5.738;2023-02-18T05:02:03;9.50;99.90
61392;DHT22;47261;52.892;5.738;2023-02-18T05:04:29;9.50;99.90
61392;DHT22;47261;52.892;5.738;2023-02-18T05:06:55;9.50;99.90
61392;DHT22;47261;52.892;5.738;2023-02-18T05:09:20;9.40;99.90
61392;DHT22;47261;52.892;5.738;2023-02-18T05:11:46;9.40;99.90
61392;DHT22;47261;52.892;5.738;2023-02-18T05:14:12;9.40;99.90
61392;DHT22;47261;52.892;5.738;2023-02-18T05:16:38;9.40;99.90
61392;DHT22;47261;52.892;5.738;2023-02-18T05:19:04;9.30;99.90
61392;DHT22;47261;52.892;5.738;2023-02-18T05:21:30;9.30;99.90
61392;DHT22;47261;52.892;5.738;2023-02-18T05:23:56;9.30;99.90
61392;DHT22;47261;52.892;5.738;2023-02-18T05:26:21;9.30;99.90
61392;DHT22;47261;52.892;5.738;2023-02-18T05:28:47;9.30;99.90
61392;DHT22;47261;52.892;5.738;2023-02-18T05:31:13;9.30;99.90
61392;DHT22;47261;52.892;5.738;2023-02-18T05:33:38;9.30;99.90
61392;DHT22;47261;52.892;5.738;2023-02-18T05:36:04;9.30;99.90
61392;DHT22;47261;52.892;5.738;2023-02-18T05:38:30;9.30;99.90
61392;DHT22;47261;52.892;5.738;2023-02-18T05:40:55;9.30;99.90
61392;DHT22;47261;52.892;5.738;2023-02-18T05:43:21;9.30;99.90
61392;DHT22;47261;52.892;5.738;2023-02-18T05:45:47;9.30;99.90
61392;DHT22;47261;52.892;5.738;2023-02-18T05:48:12;9.40;99.90
61392;DHT22;47261;52.892;5.738;2023-02-18T05:50:38;9.50;99.90
61392;DHT22;47261;52.892;5.738;2023-02-18T05:53:04;9.60;99.90
61392;DHT22;47261;52.892;5.738;2023-02-18T05:55:29;9.60;99.90
61392;DHT22;47261;52.892;5.738;2023-02-18T05:57:55;9.60;99.90
61392;DHT22;47261;52.892;5.738;2023-02-18T06:00:21;9.60;99.90
61392;DHT22;47261;52.892;5.738;2023-02-18T06:02:46;9.60;99.90
61392;DHT22;47261;52.892;5.738;2023-02-18T06:05:12;9.60;99.90
61392;DHT22;47261;52.892;5.738;2023-02-18T06:07:38;9.60;99.90
61392;DHT22;47261;52.892;5.738;2023-02-18T06:10:04;9.60;99.90
61392;DHT22;47261;52.892;5.738;2023-02-18T06:12:30;9.60;99.90
61392;DHT22;47261;52.892;5.738;2023-02-18T06:14:56;9.60;99.90
61392;DHT22;47261;52.892;5.738;2023-02-18T06:17:22;9.60;99.90
61392;DHT22;47261;52.892;5.738;2023-02-18T06:19:48;9.70;99.90
61392;DHT22;47261;52.892;5.738;2023-02-18T06:22:13;9.70;99.90
61392;DHT22;47261;52.892;5.738;2023-02-18T06:24:39;9.80;99.90
61392;DHT22;47261;52.892;5.738;2023-02-18T06:27:06;9.80;99.90
61392;DHT22;47261;52.892;5.738;2023-02-18T06:29:31;9.90;99.90
61392;DHT22;47261;52.892;5.738;2023-02-18T06:31:58;9.90;99.90
61392;DHT22;47261;52.892;5.738;2023-02-18T06:34:24;10.00;99.90
61392;DHT22;47261;52.892;5.738;2023-02-18T06:36:50;10.10;99.90
61392;DHT22;47261;52.892;5.738;2023-02-18T06:39:15;10.10;99.90
61392;DHT22;47261;52.892;5.738;2023-02-18T06:41:41;10.20;99.90
61392;DHT22;47261;52.892;5.738;2023-02-18T06:44:07;10.20;99.90
61392;DHT22;47261;52.892;5.738;2023-02-18T06:46:33;10.20;99.90
61392;DHT22;47261;52.892;5.738;2023-02-18T06:48:58;10.20;99.90
61392;DHT22;47261;52.892;5.738;2023-02-18T06:51:24;10.20;99.90
61392;DHT22;47261;52.892;5.738;2023-02-18T06:53:50;10.30;99.90
61392;DHT22;47261;52.892;5.738;2023-02-18T06:56:16;10.30;99.90
61392;DHT22;47261;52.892;5.738;2023-02-18T06:58:42;10.30;99.90
61392;DHT22;47261;52.892;5.738;2023-02-18T07:01:07;10.30;99.90
61392;DHT22;47261;52.892;5.738;2023-02-18T07:03:33;10.30;99.90
61392;DHT22;47261;52.892;5.738;2023-02-18T07:05:59;10.30;99.90
61392;DHT22;47261;52.892;5.738;2023-02-18T07:08:25;10.30;99.90
61392;DHT22;47261;52.892;5.738;2023-02-18T07:10:51;10.30;99.90
61392;DHT22;47261;52.892;5.738;2023-02-18T07:13:16;10.40;99.90
61392;DHT22;47261;52.892;5.738;2023-02-18T07:15:42;10.30;99.90
61392;DHT22;47261;52.892;5.738;2023-02-18T07:18:08;10.30;99.90
61392;DHT22;47261;52.892;5.738;2023-02-18T07:20:33;10.30;99.90
61392;DHT22;47261;52.892;5.738;2023-02-18T07:22:59;10.30;99.90
61392;DHT22;47261;52.892;5.738;2023-02-18T07:25:25;10.30;99.90
61392;DHT22;47261;52.892;5.738;2023-02-18T07:27:51;10.30;99.90
61392;DHT22;47261;52.892;5.738;2023-02-18T07:30:18;10.30;99.90
61392;DHT22;47261;52.892;5.738;2023-02-18T07:32:44;10.30;99.90
61392;DHT22;47261;52.892;5.738;2023-02-18T07:35:14;10.30;99.90
61392;DHT22;47261;52.892;5.738;2023-02-18T07:37:46;10.30;99.90
61392;DHT22;47261;52.892;5.738;2023-02-18T07:40:15;10.30;99.90
61392;DHT22;47261;52.892;5.738;2023-02-18T07:42:41;10.30;99.90
61392;DHT22;47261;52.892;5.738;2023-02-18T07:45:07;10.30;99.90
61392;DHT22;47261;52.892;5.738;2023-02-18T07:47:33;10.30;99.90
61392;DHT22;47261;52.892;5.738;2023-02-18T07:49:59;10.30;99.90
61392;DHT22;47261;52.892;5.738;2023-02-18T07:52:24;10.30;99.90
61392;DHT22;47261;52.892;5.738;2023-02-18T07:54:50;10.30;99.90
61392;DHT22;47261;52.892;5.738;2023-02-18T07:57:15;10.30;99.90
61392;DHT22;47261;52.892;5.738;2023-02-18T07:59:42;10.30;99.90
61392;DHT22;47261;52.892;5.738;2023-02-18T08:02:18;10.30;99.90
61392;DHT22;47261;52.892;5.738;2023-02-18T08:04:43;10.30;99.90
61392;DHT22;47261;52.892;5.738;2023-02-18T08:07:13;10.30;99.90
61392;DHT22;47261;52.892;5.738;2023-02-18T08:09:39;10.30;99.90
61392;DHT22;47261;52.892;5.738;2023-02-18T08:12:06;10.30;99.90
61392;DHT22;47261;52.892;5.738;2023-02-18T08:14:31;10.30;99.90
61392;DHT22;47261;52.892;5.738;2023-02-18T08:16:57;10.30;99.90
61392;DHT22;47261;52.892;5.738;2023-02-18T08:19:23;10.30;99.90
61392;DHT22;47261;52.892;5.738;2023-02-18T08:21:49;10.30;99.90
61392;DHT22;47261;52.892;5.738;2023-02-18T08:24:14;10.30;99.90
61392;DHT22;47261;52.892;5.738;2023-02-18T08:26:40;10.30;99.90
61392;DHT22;47261;52.892;5.738;2023-02-18T08:29:06;10.30;99.90
61392;DHT22;47261;52.892;5.738;2023-02-18T08:31:31;10.30;99.90
61392;DHT22;47261;52.892;5.738;2023-02-18T08:33:58;10.30;99.90
61392;DHT22;47261;52.892;5.738;2023-02-18T08:36:25;10.30;99.90
61392;DHT22;47261;52.892;5.738;2023-02-18T08:38:51;10.30;99.90
61392;DHT22;47261;52.892;5.738;2023-02-18T08:41:17;10.20;99.90
61392;DHT22;47261;52.892;5.738;2023-02-18T08:43:44;10.20;99.90
61392;DHT22;47261;52.892;5.738;2023-02-18T08:46:10;10.20;99.90
61392;DHT22;47261;52.892;5.738;2023-02-18T08:48:35;10.20;99.90
61392;DHT22;47261;52.892;5.738;2023-02-18T08:51:18;10.20;99.90
61392;DHT22;47261;52.892;5.738;2023-02-18T08:53:45;10.20;99.90
61392;DHT22;47261;52.892;5.738;2023-02-18T08:56:12;10.20;99.90
61392;DHT22;47261;52.892;5.738;2023-02-18T08:58:39;10.20;99.90
61392;DHT22;47261;52.892;5.738;2023-02-18T09:01:08;10.20;99.90
61392;DHT22;47261;52.892;5.738;2023-02-18T09:03:34;10.20;99.90
61392;DHT22;47261;52.892;5.738;2023-02-18T09:06:00;10.30;99.90
61392;DHT22;47261;52.892;5.738;2023-02-18T09:08:27;10.30;99.90
61392;DHT22;47261;52.892;5.738;2023-02-18T09:11:01;10.30;99.90
61392;DHT22;47261;52.892;5.738;2023-02-18T09:13:29;10.30;99.90
61392;DHT22;47261;52.892;5.738;2023-02-18T09:16:10;10.30;99.90
61392;DHT22;47261;52.892;5.738;2023-02-18T09:18:36;10.40;99.90
61392;DHT22;47261;52.892;5.738;2023-02-18T09:21:02;10.40;99.90
61392;DHT22;47261;52.892;5.738;2023-02-18T09:23:30;10.40;99.90
61392;DHT22;47261;52.892;5.738;2023-02-18T09:25:56;10.40;99.90
61392;DHT22;47261;52.892;5.738;2023-02-18T09:28:22;10.40;99.90
61392;DHT22;47261;52.892;5.738;2023-02-18T09:30:48;10.40;99.90
61392;DHT22;47261;52.892;5.738;2023-02-18T09:33:14;10.50;99.90
61392;DHT22;47261;52.892;5.738;2023-02-18T09:35:45;10.50;99.90
61392;DHT22;47261;52.892;5.738;2023-02-18T09:38:12;10.60;99.90
61392;DHT22;47261;52.892;5.738;2023-02-18T09:40:46;10.60;99.90
61392;DHT22;47261;52.892;5.738;2023-02-18T09:43:35;10.70;99.90
61392;DHT22;47261;52.892;5.738;2023-02-18T09:46:02;10.80;99.90
61392;DHT22;47261;52.892;5.738;2023-02-18T09:48:31;10.80;99.90
61392;DHT22;47261;52.892;5.738;2023-02-18T09:50:58;10.80;99.90
61392;DHT22;47261;52.892;5.738;2023-02-18T09:53:24;10.90;99.90
61392;DHT22;47261;52.892;5.738;2023-02-18T09:55:55;10.90;99.90
61392;DHT22;47261;52.892;5.738;2023-02-18T09:58:26;11.00;99.90
61392;DHT22;47261;52.892;5.738;2023-02-18T10:01:05;11.10;99.90
61392;DHT22;47261;52.892;5.738;2023-02-18T10:03:35;11.20;99.90
61392;DHT22;47261;52.892;5.738;2023-02-18T10:06:05;11.40;99.90
61392;DHT22;47261;52.892;5.738;2023-02-18T10:08:35;11.40;99.90
61392;DHT22;47261;52.892;5.738;2023-02-18T10:11:02;11.50;99.90
61392;DHT22;47261;52.892;5.738;2023-02-18T10:13:31;11.50;99.90
61392;DHT22;47261;52.892;5.738;2023-02-18T10:15:57;11.50;99.90
61392;DHT22;47261;52.892;5.738;2023-02-18T10:18:29;11.50;99.90
61392;DHT22;47261;52.892;5.738;2023-02-18T10:21:03;11.50;99.90
61392;DHT22;47261;52.892;5.738;2023-02-18T10:23:32;11.50;99.90
61392;DHT22;47261;52.892;5.738;2023-02-18T10:26:02;11.50;99.90
61392;DHT22;47261;52.892;5.738;2023-02-18T10:28:30;11.50;99.90
61392;DHT22;47261;52.892;5.738;2023-02-18T10:30:59;11.50;99.90
61392;DHT22;47261;52.892;5.738;2023-02-18T10:41:44;11.90;99.90
61392;DHT22;47261;52.892;5.738;2023-02-18T10:47:02;12.10;99.90
61392;DHT22;47261;52.892;5.738;2023-02-18T10:52:18;12.10;99.90
61392;DHT22;47261;52.892;5.738;2023-02-18T10:55:05;12.10;99.90
61392;DHT22;47261;52.892;5.738;2023-02-18T10:57:32;12.10;99.90
61392;DHT22;47261;52.892;5.738;2023-02-18T11:02:38;12.20;99.90
61392;DHT22;47261;52.892;5.738;2023-02-18T11:05:36;12.30;99.90
61392;DHT22;47261;52.892;5.738;2023-02-18T11:08:07;12.30;99.90
61392;DHT22;47261;52.892;5.738;2023-02-18T11:10:38;12.30;99.80
61392;DHT22;47261;52.892;5.738;2023-02-18T11:13:06;12.30;99.80
61392;DHT22;47261;52.892;5.738;2023-02-18T11:15:32;12.20;99.90
61392;DHT22;47261;52.892;5.738;2023-02-18T11:18:31;12.20;99.90
61392;DHT22;47261;52.892;5.738;2023-02-18T11:21:00;12.30;99.90
61392;DHT22;47261;52.892;5.738;2023-02-18T11:23:27;12.30;99.90
61392;DHT22;47261;52.892;5.738;2023-02-18T11:26:05;12.30;99.90
61392;DHT22;47261;52.892;5.738;2023-02-18T11:28:51;12.40;99.90
61392;DHT22;47261;52.892;5.738;2023-02-18T11:31:25;12.30;99.80
61392;DHT22;47261;52.892;5.738;2023-02-18T11:34:00;12.30;99.70
61392;DHT22;47261;52.892;5.738;2023-02-18T11:36:30;12.30;99.90
61392;DHT22;47261;52.892;5.738;2023-02-18T11:39:17;12.30;99.90
61392;DHT22;47261;52.892;5.738;2023-02-18T11:41:46;12.30;99.90
61392;DHT22;47261;52.892;5.738;2023-02-18T11:44:20;12.40;99.90
61392;DHT22;47261;52.892;5.738;2023-02-18T11:47:04;12.50;99.90
61392;DHT22;47261;52.892;5.738;2023-02-18T11:49:32;12.50;99.80
61392;DHT22;47261;52.892;5.738;2023-02-18T11:54:39;12.60;99.90
61392;DHT22;47261;52.892;5.738;2023-02-18T11:57:09;12.80;99.90
61392;DHT22;47261;52.892;5.738;2023-02-18T11:59:38;13.00;99.70
61392;DHT22;47261;52.892;5.738;2023-02-18T12:07:30;12.90;98.80
61392;DHT22;47261;52.892;5.738;2023-02-18T12:10:02;12.90;99.00
61392;DHT22;47261;52.892;5.738;2023-02-18T12:12:45;12.90;98.80
61392;DHT22;47261;52.892;5.738;2023-02-18T12:15:18;12.90;98.80
61392;DHT22;47261;52.892;5.738;2023-02-18T12:23:41;12.80;99.00
61392;DHT22;47261;52.892;5.738;2023-02-18T12:26:28;12.80;99.10
61392;DHT22;47261;52.892;5.738;2023-02-18T12:32:11;13.00;98.80
61392;DHT22;47261;52.892;5.738;2023-02-18T12:46:24;12.70;99.10
61392;DHT22;47261;52.892;5.738;2023-02-18T12:58:26;12.70;99.50
61392;DHT22;47261;52.892;5.738;2023-02-18T13:01:15;12.70;99.40
61392;DHT22;47261;52.892;5.738;2023-02-18T13:04:04;12.70;99.20
61392;DHT22;47261;52.892;5.738;2023-02-18T13:07:13;12.70;99.30
61392;DHT22;47261;52.892;5.738;2023-02-18T13:15:19;12.50;99.40
61392;DHT22;47261;52.892;5.738;2023-02-18T13:17:47;12.50;99.20
61392;DHT22;47261;52.892;5.738;2023-02-18T13:20:24;12.40;99.10
61392;DHT22;47261;52.892;5.738;2023-02-18T13:22:54;12.40;99.40
61392;DHT22;47261;52.892;5.738;2023-02-18T13:25:21;12.30;99.70
61392;DHT22;47261;52.892;5.738;2023-02-18T13:30:37;12.30;99.60
61392;DHT22;47261;52.892;5.738;2023-02-18T13:35:42;12.20;99.80
61392;DHT22;47261;52.892;5.738;2023-02-18T13:38:58;12.20;99.80
61392;DHT22;47261;52.892;5.738;2023-02-18T13:40:58;12.20;99.90
61392;DHT22;47261;52.892;5.738;2023-02-18T13:43:31;12.20;99.90
61392;DHT22;47261;52.892;5.738;2023-02-18T13:51:03;12.10;99.80
61392;DHT22;47261;52.892;5.738;2023-02-18T13:53:35;12.10;99.90
61392;DHT22;47261;52.892;5.738;2023-02-18T13:58:53;12.00;99.90
61392;DHT22;47261;52.892;5.738;2023-02-18T14:01:39;12.00;99.90
61392;DHT22;47261;52.892;5.738;2023-02-18T14:09:57;12.30;99.90
61392;DHT22;47261;52.892;5.738;2023-02-18T14:14:55;12.40;99.30
61392;DHT22;47261;52.892;5.738;2023-02-18T14:20:42;12.40;98.90
61392;DHT22;47261;52.892;5.738;2023-02-18T14:22:49;12.40;99.10
61392;DHT22;47261;52.892;5.738;2023-02-18T14:27:41;12.30;98.90
61392;DHT22;47261;52.892;5.738;2023-02-18T14:30:35;12.20;99.10
61392;DHT22;47261;52.892;5.738;2023-02-18T14:33:03;12.10;99.00
61392;DHT22;47261;52.892;5.738;2023-02-18T14:35:39;12.10;99.10
61392;DHT22;47261;52.892;5.738;2023-02-18T14:41:13;12.00;99.40
61392;DHT22;47261;52.892;5.738;2023-02-18T14:47:35;11.80;99.40
61392;DHT22;47261;52.892;5.738;2023-02-18T14:52:10;11.80;99.50
61392;DHT22;47261;52.892;5.738;2023-02-18T14:54:38;11.80;99.70
61392;DHT22;47261;52.892;5.738;2023-02-18T14:57:13;11.70;99.60
61392;DHT22;47261;52.892;5.738;2023-02-18T14:59:42;11.70;99.60
61392;DHT22;47261;52.892;5.738;2023-02-18T15:02:23;11.70;99.90
61392;DHT22;47261;52.892;5.738;2023-02-18T15:04:52;11.60;99.80
61392;DHT22;47261;52.892;5.738;2023-02-18T15:07:21;11.60;99.80
61392;DHT22;47261;52.892;5.738;2023-02-18T15:09:56;11.60;99.70
61392;DHT22;47261;52.892;5.738;2023-02-18T15:12:23;11.60;99.80
61392;DHT22;47261;52.892;5.738;2023-02-18T15:14:52;11.50;99.80
61392;DHT22;47261;52.892;5.738;2023-02-18T15:17:24;11.50;99.60
61392;DHT22;47261;52.892;5.738;2023-02-18T15:19:57;11.50;99.60
61392;DHT22;47261;52.892;5.738;2023-02-18T15:22:26;11.50;99.60
61392;DHT22;47261;52.892;5.738;2023-02-18T15:24:53;11.50;99.50
61392;DHT22;47261;52.892;5.738;2023-02-18T15:27:40;11.40;99.50
61392;DHT22;47261;52.892;5.738;2023-02-18T15:30:26;11.40;99.60
61392;DHT22;47261;52.892;5.738;2023-02-18T15:32:58;11.40;99.60
61392;DHT22;47261;52.892;5.738;2023-02-18T15:35:31;11.40;99.60
61392;DHT22;47261;52.892;5.738;2023-02-18T15:37:59;11.40;99.60
61392;DHT22;47261;52.892;5.738;2023-02-18T15:40:31;11.40;99.60
61392;DHT22;47261;52.892;5.738;2023-02-18T15:43:01;11.30;99.60
61392;DHT22;47261;52.892;5.738;2023-02-18T15:45:39;11.30;99.60
61392;DHT22;47261;52.892;5.738;2023-02-18T15:48:06;11.30;99.70
61392;DHT22;47261;52.892;5.738;2023-02-18T15:50:57;11.20;99.60
61392;DHT22;47261;52.892;5.738;2023-02-18T15:53:27;11.20;99.60
61392;DHT22;47261;52.892;5.738;2023-02-18T15:55:53;11.20;99.50
61392;DHT22;47261;52.892;5.738;2023-02-18T15:58:27;11.20;99.60
61392;DHT22;47261;52.892;5.738;2023-02-18T16:03:44;11.10;99.60
61392;DHT22;47261;52.892;5.738;2023-02-18T16:06:12;11.10;99.60
61392;DHT22;47261;52.892;5.738;2023-02-18T16:09:17;11.20;99.60
61392;DHT22;47261;52.892;5.738;2023-02-18T16:11:47;11.10;99.60
61392;DHT22;47261;52.892;5.738;2023-02-18T16:14:42;11.10;99.60
61392;DHT22;47261;52.892;5.738;2023-02-18T16:17:16;11.10;99.70
61392;DHT22;47261;52.892;5.738;2023-02-18T16:19:52;11.10;99.60
61392;DHT22;47261;52.892;5.738;2023-02-18T16:30:25;11.10;99.40
61392;DHT22;47261;52.892;5.738;2023-02-18T16:32:51;11.10;99.40
61392;DHT22;47261;52.892;5.738;2023-02-18T16:35:17;11.10;99.40
61392;DHT22;47261;52.892;5.738;2023-02-18T16:37:43;11.10;99.40
61392;DHT22;47261;52.892;5.738;2023-02-18T16:43:00;11.10;99.60
61392;DHT22;47261;52.892;5.738;2023-02-18T16:45:35;11.10;99.60
61392;DHT22;47261;52.892;5.738;2023-02-18T16:48:03;11.00;99.60
61392;DHT22;47261;52.892;5.738;2023-02-18T16:50:30;11.00;99.70
61392;DHT22;47261;52.892;5.738;2023-02-18T16:52:56;11.00;99.70
61392;DHT22;47261;52.892;5.738;2023-02-18T16:55:24;11.00;99.80
61392;DHT22;47261;52.892;5.738;2023-02-18T16:57:50;11.00;99.70
61392;DHT22;47261;52.892;5.738;2023-02-18T17:00:17;11.00;99.70
61392;DHT22;47261;52.892;5.738;2023-02-18T17:02:45;11.00;99.70
61392;DHT22;47261;52.892;5.738;2023-02-18T17:05:19;11.00;99.70
61392;DHT22;47261;52.892;5.738;2023-02-18T17:07:46;11.00;99.70
61392;DHT22;47261;52.892;5.738;2023-02-18T17:10:12;11.00;99.60
61392;DHT22;47261;52.892;5.738;2023-02-18T17:12:38;11.00;99.50
61392;DHT22;47261;52.892;5.738;2023-02-18T17:17:47;11.00;99.60
61392;DHT22;47261;52.892;5.738;2023-02-18T17:20:13;11.00;99.60
61392;DHT22;47261;52.892;5.738;2023-02-18T17:22:40;11.00;99.60
61392;DHT22;47261;52.892;5.738;2023-02-18T17:25:38;11.00;99.60
61392;DHT22;47261;52.892;5.738;2023-02-18T17:28:04;11.00;99.60
61392;DHT22;47261;52.892;5.738;2023-02-18T17:30:34;11.00;99.60
61392;DHT22;47261;52.892;5.738;2023-02-18T17:33:01;11.00;99.60
61392;DHT22;47261;52.892;5.738;2023-02-18T17:35:27;10.90;99.60
61392;DHT22;47261;52.892;5.738;2023-02-18T17:37:53;11.00;99.70
61392;DHT22;47261;52.892;5.738;2023-02-18T17:40:21;11.00;99.70
61392;DHT22;47261;52.892;5.738;2023-02-18T17:42:48;11.00;99.70
61392;DHT22;47261;52.892;5.738;2023-02-18T17:45:34;11.00;99.80
61392;DHT22;47261;52.892;5.738;2023-02-18T17:48:02;11.00;99.80
61392;DHT22;47261;52.892;5.738;2023-02-18T17:50:29;11.00;99.80
61392;DHT22;47261;52.892;5.738;2023-02-18T17:52:55;11.00;99.80
61392;DHT22;47261;52.892;5.738;2023-02-18T17:55:26;11.00;99.80
61392;DHT22;47261;52.892;5.738;2023-02-18T17:57:53;10.90;99.80
61392;DHT22;47261;52.892;5.738;2023-02-18T18:00:22;10.90;99.80
61392;DHT22;47261;52.892;5.738;2023-02-18T18:02:48;10.90;99.80
61392;DHT22;47261;52.892;5.738;2023-02-18T18:05:20;10.90;99.90
61392;DHT22;47261;52.892;5.738;2023-02-18T18:07:46;10.90;99.90
61392;DHT22;47261;52.892;5.738;2023-02-18T18:10:13;10.90;99.90
61392;DHT22;47261;52.892;5.738;2023-02-18T18:12:39;11.00;99.90
61392;DHT22;47261;52.892;5.738;2023-02-18T18:17:44;10.90;99.90
61392;DHT22;47261;52.892;5.738;2023-02-18T18:20:10;11.00;99.90
61392;DHT22;47261;52.892;5.738;2023-02-18T18:22:35;11.00;99.80
61392;DHT22;47261;52.892;5.738;2023-02-18T18:25:01;10.90;99.80